Aviation Digital Data Service (ADDS)

Output produced by TAFs form (1630 UTC 23 November 2017)
found at http://www.aviationweather.gov/adds/tafs/
 
METAR text: ZSAM 231600Z 05007MPS 8000 NSC 16/07 Q1023 NOSIG
Conditions at: ZSAM (XIAMEN , CN) observed 1600 UTC 23 November 2017
Temperature: 16.0°C (61°F)
Dewpoint: 7.0°C (45°F) [RH = 55%]
Pressure (altimeter): 30.21 inches Hg (1023.0 mb)
Winds: from the NE (50 degrees) at 16 MPH (14 knots; 7.3 m/s)
Visibility: 5 miles (8 km)
Ceiling: at least 12,000 feet AGL
Clouds: sky clear below 12,000 feet AGL
Weather: no significant weather observed at this time

Forecast for: ZSAM (XIAMEN , CN)
Text: TAF ZSAM 231509Z 2318/2418 05007G12MPS 6000 SCT040 TX21/2406Z TN15/2321Z
Forecast period: 1800 UTC 23 November 2017 to 1800 UTC 24 November 2017
Forecast type: FROM: standard forecast or significant change
Winds: from the NE (50 degrees) at 16 MPH (14 knots; 7.3 m/s)
gusting to 26 MPH (23 knots; 12.0 m/s)
Visibility: 4 miles (6 km)
Clouds: scattered clouds at 4000 feet AGL
Weather: no significant weather forecast for this period